createdAt,value
2023-06-18T00:04:30.368Z,20.30
2023-06-18T00:09:51.661Z,20.10
2023-06-18T00:15:12.418Z,20.00
2023-06-18T00:20:34.966Z,20.00
2023-06-18T00:25:56.012Z,20.00
2023-06-18T00:31:16.900Z,19.90
2023-06-18T00:36:38.973Z,19.80
2023-06-18T00:42:00.028Z,19.70
2023-06-18T00:47:20.845Z,19.70
2023-06-18T00:52:45.102Z,19.60
2023-06-18T00:58:06.000Z,19.40
2023-06-18T01:03:26.915Z,19.30
2023-06-18T01:08:50.339Z,19.10
2023-06-18T01:14:11.768Z,19.10
2023-06-18T01:19:48.767Z,19.10
2023-06-18T01:25:11.568Z,19.20
2023-06-18T01:30:33.221Z,19.20
2023-06-18T01:35:54.810Z,19.30
2023-06-18T01:41:25.502Z,19.40
2023-06-18T01:46:48.561Z,19.50
2023-06-18T01:52:10.970Z,19.50
2023-06-18T01:57:34.322Z,19.50
2023-06-18T02:02:55.667Z,19.50
2023-06-18T02:08:16.348Z,19.50
2023-06-18T02:13:38.542Z,19.50
2023-06-18T02:18:59.011Z,19.30
2023-06-18T02:24:19.763Z,19.20
2023-06-18T02:29:43.045Z,19.00
2023-06-18T02:35:03.880Z,18.80
2023-06-18T02:40:24.946Z,18.70
2023-06-18T02:45:47.556Z,18.50
2023-06-18T02:51:08.525Z,18.50
2023-06-18T02:56:29.251Z,18.50
2023-06-18T03:01:51.364Z,18.50
2023-06-18T03:07:11.970Z,18.60
2023-06-18T03:12:32.763Z,18.70
2023-06-18T03:17:55.359Z,18.50
2023-06-18T03:23:16.525Z,18.30
2023-06-18T03:28:37.312Z,18.30
2023-06-18T03:33:59.683Z,18.40
2023-06-18T03:39:21.334Z,18.50
2023-06-18T03:44:42.129Z,18.60
2023-06-18T03:50:04.659Z,18.60
2023-06-18T03:55:25.307Z,18.70
2023-06-18T04:00:46.118Z,18.70
2023-06-18T04:06:08.920Z,18.70
2023-06-18T04:11:30.116Z,18.40
2023-06-18T04:16:50.797Z,18.00
2023-06-18T04:22:12.976Z,17.70
2023-06-18T04:27:33.920Z,17.50
2023-06-18T04:32:54.824Z,17.30
2023-06-18T04:38:17.049Z,17.10
2023-06-18T04:43:38.058Z,17.00
2023-06-18T04:48:58.858Z,16.90
2023-06-18T04:54:20.911Z,16.90
2023-06-18T04:59:41.824Z,16.90
2023-06-18T05:05:02.756Z,16.90
2023-06-18T05:10:25.773Z,16.90
2023-06-18T05:15:47.338Z,17.00
2023-06-18T05:21:07.921Z,17.10
2023-06-18T05:26:30.282Z,17.40
2023-06-18T05:31:51.284Z,17.50
2023-06-18T05:37:12.120Z,17.60
2023-06-18T05:42:34.461Z,17.70
2023-06-18T05:47:55.617Z,18.00
2023-06-18T05:53:16.857Z,18.30
2023-06-18T05:58:39.094Z,18.50
2023-06-18T06:03:59.780Z,18.80
2023-06-18T06:09:20.444Z,18.90
2023-06-18T06:14:42.724Z,18.90
2023-06-18T06:20:04.871Z,19.00
2023-06-18T06:25:25.670Z,19.10
2023-06-18T06:30:48.115Z,19.20
2023-06-18T06:36:08.927Z,19.30
2023-06-18T06:41:29.903Z,19.40
2023-06-18T06:46:51.924Z,19.80
2023-06-18T06:52:13.061Z,20.40
2023-06-18T06:57:33.881Z,21.10
2023-06-18T07:02:56.096Z,22.00
2023-06-18T07:08:17.087Z,23.00
2023-06-18T07:13:37.814Z,23.80
2023-06-18T07:19:00.086Z,24.40
2023-06-18T07:24:21.436Z,24.80
2023-06-18T07:29:42.396Z,25.30
2023-06-18T07:35:05.482Z,26.10
2023-06-18T07:40:26.116Z,26.90
2023-06-18T07:45:46.827Z,27.60
2023-06-18T07:51:08.905Z,28.30
2023-06-18T07:56:31.639Z,29.00
2023-06-18T08:01:52.340Z,29.40
2023-06-18T08:07:16.646Z,29.70
2023-06-18T08:12:37.285Z,30.00
2023-06-18T08:17:58.121Z,30.40
2023-06-18T08:23:20.226Z,31.00
2023-06-18T08:28:41.147Z,31.40
2023-06-18T08:34:01.924Z,31.60
2023-06-18T08:39:24.077Z,31.90
2023-06-18T08:44:48.164Z,32.10
2023-06-18T08:50:10.625Z,32.20
2023-06-18T08:55:34.170Z,32.30
2023-06-18T09:00:55.374Z,32.60
2023-06-18T09:06:16.172Z,32.70
2023-06-18T09:11:38.108Z,32.80
2023-06-18T09:16:59.344Z,33.20
2023-06-18T09:22:21.323Z,33.50
2023-06-18T09:27:43.502Z,33.50
2023-06-18T09:33:04.627Z,33.40
2023-06-18T09:38:33.711Z,33.30
2023-06-18T09:43:55.908Z,33.30
2023-06-18T09:49:18.550Z,33.50
2023-06-18T09:54:41.480Z,33.70
2023-06-18T10:00:13.098Z,33.80
2023-06-18T10:05:34.187Z,34.10
2023-06-18T10:10:55.148Z,34.30
2023-06-18T10:16:18.412Z,34.30
2023-06-18T10:21:47.458Z,34.40
2023-06-18T10:27:08.896Z,34.50
2023-06-18T10:32:31.667Z,34.70
2023-06-18T10:37:53.499Z,34.30
2023-06-18T10:43:14.550Z,34.10
2023-06-18T10:48:36.618Z,34.00
2023-06-18T10:54:20.473Z,33.90
2023-06-18T10:59:44.356Z,33.80
2023-06-18T11:05:07.068Z,34.10
2023-06-18T11:10:34.185Z,35.00
2023-06-18T11:16:00.645Z,35.50
2023-06-18T11:21:23.449Z,35.70
2023-06-18T11:26:44.290Z,35.60
2023-06-18T11:32:13.726Z,35.50
2023-06-18T11:37:36.482Z,35.60
2023-06-18T11:42:57.397Z,35.70
2023-06-18T11:48:20.472Z,35.50
2023-06-18T11:53:43.160Z,35.30
2023-06-18T11:59:04.858Z,35.30
2023-06-18T12:04:31.147Z,35.40
2023-06-18T12:09:55.458Z,35.40
2023-06-18T12:15:23.175Z,35.30
2023-06-18T12:20:44.727Z,35.40
2023-06-18T12:26:07.301Z,35.50
2023-06-18T12:31:28.240Z,35.40
2023-06-18T12:36:49.107Z,34.70
2023-06-18T12:42:11.646Z,34.10
2023-06-18T12:47:32.215Z,34.10
2023-06-18T12:52:53.847Z,34.50
2023-06-18T12:58:20.108Z,34.60
2023-06-18T13:03:41.172Z,34.60
2023-06-18T13:09:01.964Z,34.90
2023-06-18T13:14:31.084Z,35.30
2023-06-18T13:19:59.502Z,35.70
2023-06-18T13:25:20.940Z,36.00
2023-06-18T13:30:43.183Z,36.20
2023-06-18T13:36:04.840Z,36.30
2023-06-18T13:41:25.930Z,36.30
2023-06-18T13:46:48.370Z,36.30
2023-06-18T13:52:09.338Z,36.30
2023-06-18T13:57:30.107Z,35.90
2023-06-18T14:02:57.570Z,35.60
2023-06-18T14:08:19.122Z,35.30
2023-06-18T14:13:39.883Z,34.70
2023-06-18T14:19:02.317Z,34.20
2023-06-18T14:24:23.326Z,33.80
2023-06-18T14:29:44.150Z,33.90
2023-06-18T14:35:07.041Z,33.90
2023-06-18T14:40:27.911Z,34.00
2023-06-18T14:45:48.963Z,34.20
2023-06-18T14:51:10.860Z,34.50
2023-06-18T14:56:32.007Z,34.70
2023-06-18T15:01:52.892Z,34.70
2023-06-18T15:07:15.124Z,34.90
2023-06-18T15:12:36.265Z,34.90
2023-06-18T15:17:57.391Z,34.90
2023-06-18T15:23:19.975Z,34.60
2023-06-18T15:28:41.014Z,34.20
2023-06-18T15:34:01.969Z,33.70
2023-06-18T15:39:24.212Z,33.20
2023-06-18T15:44:45.360Z,32.90
2023-06-18T15:50:07.825Z,32.60
2023-06-18T15:55:30.044Z,32.00
2023-06-18T16:00:51.059Z,31.50
2023-06-18T16:06:12.010Z,31.30
2023-06-18T16:11:34.555Z,31.30
2023-06-18T16:16:55.725Z,30.90
2023-06-18T16:22:16.455Z,30.60
2023-06-18T16:27:38.804Z,30.30
2023-06-18T16:33:00.056Z,30.20
2023-06-18T16:38:21.188Z,29.90
2023-06-18T16:43:43.485Z,29.60
2023-06-18T16:49:04.665Z,29.30
2023-06-18T16:54:25.591Z,29.20
2023-06-18T16:59:47.812Z,29.20
2023-06-18T17:05:09.107Z,29.00
2023-06-18T17:10:29.884Z,28.80
2023-06-18T17:15:53.478Z,28.60
2023-06-18T17:21:16.408Z,28.40
2023-06-18T17:26:37.930Z,28.40
2023-06-18T17:32:00.161Z,28.30
2023-06-18T17:37:21.042Z,28.30
2023-06-18T17:42:42.155Z,28.20
2023-06-18T17:48:05.038Z,28.10
2023-06-18T17:53:25.925Z,28.20
2023-06-18T17:58:46.887Z,28.20
2023-06-18T18:04:09.164Z,28.20
2023-06-18T18:09:30.107Z,28.10
2023-06-18T18:14:50.935Z,28.10
2023-06-18T18:20:13.466Z,28.00
2023-06-18T18:25:34.500Z,28.00
2023-06-18T18:30:55.174Z,27.80
2023-06-18T18:36:17.512Z,27.60
2023-06-18T18:41:38.135Z,27.40
2023-06-18T18:46:59.218Z,27.30
2023-06-18T18:52:21.491Z,27.10
2023-06-18T18:57:42.498Z,27.10
2023-06-18T19:03:03.454Z,27.00
2023-06-18T19:08:25.639Z,26.90
2023-06-18T19:13:46.939Z,26.80
2023-06-18T19:19:08.569Z,26.60
2023-06-18T19:24:32.061Z,26.50
2023-06-18T19:29:53.119Z,26.40
2023-06-18T19:35:13.928Z,26.40
2023-06-18T19:40:36.232Z,26.30
2023-06-18T19:45:57.277Z,26.30
2023-06-18T19:51:18.418Z,26.20
2023-06-18T19:56:49.907Z,26.00
2023-06-18T20:02:10.633Z,25.90
2023-06-18T20:07:34.299Z,25.70
2023-06-18T20:12:59.218Z,25.50
2023-06-18T20:18:20.624Z,25.40
2023-06-18T20:23:41.756Z,25.30
2023-06-18T20:29:04.053Z,25.10
2023-06-18T20:34:24.962Z,25.00
2023-06-18T20:39:45.905Z,24.90
2023-06-18T20:45:09.524Z,24.80
2023-06-18T20:50:30.431Z,24.70
2023-06-18T20:55:51.370Z,24.70
2023-06-18T21:01:13.428Z,24.60
2023-06-18T21:06:34.538Z,24.60
2023-06-18T21:11:55.213Z,24.60
2023-06-18T21:17:17.558Z,24.60
2023-06-18T21:22:38.710Z,24.50
2023-06-18T21:27:59.354Z,24.50
2023-06-18T21:33:21.806Z,24.50
2023-06-18T21:38:42.698Z,24.60
2023-06-18T21:44:03.924Z,24.60
2023-06-18T21:49:26.041Z,24.60
2023-06-18T21:54:46.678Z,24.60
2023-06-18T22:00:10.409Z,24.60
2023-06-18T22:05:32.600Z,24.60
2023-06-18T22:10:53.203Z,24.50
2023-06-18T22:16:14.212Z,24.30
2023-06-18T22:21:36.438Z,24.20
2023-06-18T22:26:57.745Z,24.20
2023-06-18T22:32:19.002Z,24.20
2023-06-18T22:37:41.302Z,24.10
2023-06-18T22:43:02.313Z,24.00
2023-06-18T22:48:23.387Z,23.90
2023-06-18T22:53:45.600Z,23.80
2023-06-18T22:59:06.685Z,23.70
2023-06-18T23:04:27.403Z,23.60
2023-06-18T23:09:49.695Z,23.60
2023-06-18T23:15:11.938Z,23.60
2023-06-18T23:20:33.272Z,23.50
2023-06-18T23:25:55.480Z,23.40
2023-06-18T23:31:16.891Z,23.30
2023-06-18T23:36:37.907Z,23.30
2023-06-18T23:42:00.327Z,23.30
2023-06-18T23:47:21.002Z,23.20
2023-06-18T23:52:41.888Z,23.20
2023-06-18T23:58:04.021Z,23.20
